Terminal Aerodrome Forecast
Issued by NWS

Home | Current Version | Previous Version | Text Only | Print | Product List | Glossary On
Versions: 1 2 3 4 5 6 7 8 9 10 11 12 13 14 15 16 17 18 19 20 21 22 23
757
FTUS45 KGJT 252340
TAFRIL
TAF
KRIL 252340Z 2600/2624 25008KT P6SM VCSH FEW090
     FM260130 31010KT 5SM -RA BKN030
     FM260500 30004KT P6SM VCSH BKN110
     FM260900 VRB03KT P6SM BKN060
     FM262000 27009KT P6SM BKN070=

USA.gov is the U.S. government's official web portal to all federal, state and local government web resources and services.